sensor_id;sensor_type;location;lat;lon;timestamp;temperature;humidity
20091;DHT22;10205;49.678;6.560;2022-07-29T00:01:39;28.90;33.30
20091;DHT22;10205;49.678;6.560;2022-07-29T00:04:06;28.90;33.30
20091;DHT22;10205;49.678;6.560;2022-07-29T00:06:35;28.80;33.30
20091;DHT22;10205;49.678;6.560;2022-07-29T00:09:03;28.80;33.40
20091;DHT22;10205;49.678;6.560;2022-07-29T00:11:32;28.80;33.40
20091;DHT22;10205;49.678;6.560;2022-07-29T00:13:59;28.80;33.40
20091;DHT22;10205;49.678;6.560;2022-07-29T00:16:27;28.80;33.50
20091;DHT22;10205;49.678;6.560;2022-07-29T00:18:54;28.70;33.50
20091;DHT22;10205;49.678;6.560;2022-07-29T00:21:21;28.70;33.60
20091;DHT22;10205;49.678;6.560;2022-07-29T00:23:51;28.70;33.60
20091;DHT22;10205;49.678;6.560;2022-07-29T00:26:18;28.60;33.70
20091;DHT22;10205;49.678;6.560;2022-07-29T00:28:45;28.60;33.70
20091;DHT22;10205;49.678;6.560;2022-07-29T00:31:13;28.60;33.80
20091;DHT22;10205;49.678;6.560;2022-07-29T00:33:41;28.60;33.80
20091;DHT22;10205;49.678;6.560;2022-07-29T00:36:08;28.60;33.90
20091;DHT22;10205;49.678;6.560;2022-07-29T00:38:34;28.50;34.00
20091;DHT22;10205;49.678;6.560;2022-07-29T00:41:03;28.50;34.10
20091;DHT22;10205;49.678;6.560;2022-07-29T00:43:31;28.50;34.10
20091;DHT22;10205;49.678;6.560;2022-07-29T00:45:58;28.50;34.10
20091;DHT22;10205;49.678;6.560;2022-07-29T00:48:26;28.50;34.20
20091;DHT22;10205;49.678;6.560;2022-07-29T00:50:53;28.40;34.20
20091;DHT22;10205;49.678;6.560;2022-07-29T00:53:23;28.40;34.30
20091;DHT22;10205;49.678;6.560;2022-07-29T00:55:53;28.40;34.30
20091;DHT22;10205;49.678;6.560;2022-07-29T00:58:23;28.40;34.50
20091;DHT22;10205;49.678;6.560;2022-07-29T01:00:51;28.30;34.50
20091;DHT22;10205;49.678;6.560;2022-07-29T01:03:19;28.30;34.50
20091;DHT22;10205;49.678;6.560;2022-07-29T01:05:46;28.20;34.40
20091;DHT22;10205;49.678;6.560;2022-07-29T01:08:15;28.20;34.50
20091;DHT22;10205;49.678;6.560;2022-07-29T01:10:44;28.20;34.60
20091;DHT22;10205;49.678;6.560;2022-07-29T01:13:13;28.10;34.60
20091;DHT22;10205;49.678;6.560;2022-07-29T01:15:46;28.10;35.30
20091;DHT22;10205;49.678;6.560;2022-07-29T01:18:20;28.10;34.80
20091;DHT22;10205;49.678;6.560;2022-07-29T01:21:07;28.00;34.70
20091;DHT22;10205;49.678;6.560;2022-07-29T01:24:14;28.00;34.90
20091;DHT22;10205;49.678;6.560;2022-07-29T01:26:58;28.00;34.90
20091;DHT22;10205;49.678;6.560;2022-07-29T01:29:35;27.90;35.20
20091;DHT22;10205;49.678;6.560;2022-07-29T01:32:11;27.90;35.10
20091;DHT22;10205;49.678;6.560;2022-07-29T01:34:50;27.90;35.40
20091;DHT22;10205;49.678;6.560;2022-07-29T01:37:26;27.80;35.20
20091;DHT22;10205;49.678;6.560;2022-07-29T01:39:59;27.80;35.30
20091;DHT22;10205;49.678;6.560;2022-07-29T01:42:34;27.70;35.50
20091;DHT22;10205;49.678;6.560;2022-07-29T01:45:12;27.70;35.50
20091;DHT22;10205;49.678;6.560;2022-07-29T01:47:49;27.60;36.10
20091;DHT22;10205;49.678;6.560;2022-07-29T01:50:28;27.60;36.10
20091;DHT22;10205;49.678;6.560;2022-07-29T01:53:02;27.50;35.70
20091;DHT22;10205;49.678;6.560;2022-07-29T01:55:36;27.50;36.00
20091;DHT22;10205;49.678;6.560;2022-07-29T01:58:07;27.50;35.90
20091;DHT22;10205;49.678;6.560;2022-07-29T02:00:39;27.40;35.80
20091;DHT22;10205;49.678;6.560;2022-07-29T02:03:11;27.40;36.10
20091;DHT22;10205;49.678;6.560;2022-07-29T02:05:42;27.30;35.90
20091;DHT22;10205;49.678;6.560;2022-07-29T02:08:12;27.20;36.00
20091;DHT22;10205;49.678;6.560;2022-07-29T02:10:42;27.20;36.00
20091;DHT22;10205;49.678;6.560;2022-07-29T02:13:11;27.20;36.10
20091;DHT22;10205;49.678;6.560;2022-07-29T02:15:42;27.20;36.10
20091;DHT22;10205;49.678;6.560;2022-07-29T02:18:14;27.10;36.20
20091;DHT22;10205;49.678;6.560;2022-07-29T02:20:47;27.10;36.30
20091;DHT22;10205;49.678;6.560;2022-07-29T02:23:19;27.10;37.00
20091;DHT22;10205;49.678;6.560;2022-07-29T02:25:49;27.00;36.30
20091;DHT22;10205;49.678;6.560;2022-07-29T02:28:22;27.00;36.30
20091;DHT22;10205;49.678;6.560;2022-07-29T02:31:01;27.00;36.30
20091;DHT22;10205;49.678;6.560;2022-07-29T02:33:30;26.90;36.40
20091;DHT22;10205;49.678;6.560;2022-07-29T02:35:59;26.90;36.40
20091;DHT22;10205;49.678;6.560;2022-07-29T02:38:28;26.80;36.40
20091;DHT22;10205;49.678;6.560;2022-07-29T02:41:22;26.80;36.40
20091;DHT22;10205;49.678;6.560;2022-07-29T02:43:56;26.80;36.50
20091;DHT22;10205;49.678;6.560;2022-07-29T02:46:30;26.70;36.50
20091;DHT22;10205;49.678;6.560;2022-07-29T02:49:04;26.70;36.60
20091;DHT22;10205;49.678;6.560;2022-07-29T02:51:46;26.70;36.70
20091;DHT22;10205;49.678;6.560;2022-07-29T02:54:30;26.70;36.80
20091;DHT22;10205;49.678;6.560;2022-07-29T02:57:05;26.70;36.80
20091;DHT22;10205;49.678;6.560;2022-07-29T02:59:38;26.60;36.80
20091;DHT22;10205;49.678;6.560;2022-07-29T03:02:12;26.60;36.80
20091;DHT22;10205;49.678;6.560;2022-07-29T03:04:42;26.60;36.90
20091;DHT22;10205;49.678;6.560;2022-07-29T03:07:13;26.50;36.80
20091;DHT22;10205;49.678;6.560;2022-07-29T03:09:45;26.50;37.00
20091;DHT22;10205;49.678;6.560;2022-07-29T03:12:14;26.40;37.00
20091;DHT22;10205;49.678;6.560;2022-07-29T03:14:44;26.40;37.00
20091;DHT22;10205;49.678;6.560;2022-07-29T03:17:13;26.40;37.00
20091;DHT22;10205;49.678;6.560;2022-07-29T03:19:42;26.30;37.10
20091;DHT22;10205;49.678;6.560;2022-07-29T03:22:10;26.30;37.20
20091;DHT22;10205;49.678;6.560;2022-07-29T03:24:38;26.30;37.20
20091;DHT22;10205;49.678;6.560;2022-07-29T03:27:06;26.20;37.20
20091;DHT22;10205;49.678;6.560;2022-07-29T03:29:33;26.20;37.30
20091;DHT22;10205;49.678;6.560;2022-07-29T03:32:04;26.20;37.30
20091;DHT22;10205;49.678;6.560;2022-07-29T03:34:34;26.10;37.40
20091;DHT22;10205;49.678;6.560;2022-07-29T03:37:04;26.10;37.40
20091;DHT22;10205;49.678;6.560;2022-07-29T03:39:35;26.10;37.50
20091;DHT22;10205;49.678;6.560;2022-07-29T03:42:08;26.10;37.50
20091;DHT22;10205;49.678;6.560;2022-07-29T03:44:44;26.00;37.40
20091;DHT22;10205;49.678;6.560;2022-07-29T03:47:15;26.00;37.50
20091;DHT22;10205;49.678;6.560;2022-07-29T03:49:49;26.00;37.60
20091;DHT22;10205;49.678;6.560;2022-07-29T03:52:18;25.90;37.60
20091;DHT22;10205;49.678;6.560;2022-07-29T03:54:46;25.90;37.50
20091;DHT22;10205;49.678;6.560;2022-07-29T03:57:16;25.80;37.50
20091;DHT22;10205;49.678;6.560;2022-07-29T03:59:47;25.80;37.80
20091;DHT22;10205;49.678;6.560;2022-07-29T04:02:15;25.80;37.70
20091;DHT22;10205;49.678;6.560;2022-07-29T04:04:44;25.70;37.70
20091;DHT22;10205;49.678;6.560;2022-07-29T04:07:13;25.70;37.80
20091;DHT22;10205;49.678;6.560;2022-07-29T04:09:41;25.70;38.00
20091;DHT22;10205;49.678;6.560;2022-07-29T04:12:09;25.60;37.80
20091;DHT22;10205;49.678;6.560;2022-07-29T04:14:37;25.60;37.90
20091;DHT22;10205;49.678;6.560;2022-07-29T04:17:04;25.60;38.00
20091;DHT22;10205;49.678;6.560;2022-07-29T04:19:32;25.50;38.00
20091;DHT22;10205;49.678;6.560;2022-07-29T04:22:00;25.50;38.00
20091;DHT22;10205;49.678;6.560;2022-07-29T04:24:29;25.50;38.10
20091;DHT22;10205;49.678;6.560;2022-07-29T04:26:57;25.40;38.10
20091;DHT22;10205;49.678;6.560;2022-07-29T04:29:24;25.40;38.20
20091;DHT22;10205;49.678;6.560;2022-07-29T04:31:52;25.40;38.20
20091;DHT22;10205;49.678;6.560;2022-07-29T04:34:21;25.30;38.20
20091;DHT22;10205;49.678;6.560;2022-07-29T04:36:48;25.30;38.20
20091;DHT22;10205;49.678;6.560;2022-07-29T04:39:15;25.30;38.20
20091;DHT22;10205;49.678;6.560;2022-07-29T04:41:45;25.20;38.20
20091;DHT22;10205;49.678;6.560;2022-07-29T04:44:15;25.20;38.40
20091;DHT22;10205;49.678;6.560;2022-07-29T04:46:44;25.20;38.30
20091;DHT22;10205;49.678;6.560;2022-07-29T04:49:12;25.20;39.10
20091;DHT22;10205;49.678;6.560;2022-07-29T04:51:40;25.10;38.40
20091;DHT22;10205;49.678;6.560;2022-07-29T04:54:07;25.10;38.40
20091;DHT22;10205;49.678;6.560;2022-07-29T04:56:34;25.00;38.40
20091;DHT22;10205;49.678;6.560;2022-07-29T04:59:03;25.00;38.50
20091;DHT22;10205;49.678;6.560;2022-07-29T05:01:30;25.00;38.60
20091;DHT22;10205;49.678;6.560;2022-07-29T05:03:58;25.00;38.60
20091;DHT22;10205;49.678;6.560;2022-07-29T05:06:26;25.00;38.70
20091;DHT22;10205;49.678;6.560;2022-07-29T05:08:53;24.90;38.70
20091;DHT22;10205;49.678;6.560;2022-07-29T05:11:20;24.90;38.70
20091;DHT22;10205;49.678;6.560;2022-07-29T05:13:47;24.90;39.10
20091;DHT22;10205;49.678;6.560;2022-07-29T05:16:16;24.80;38.80
20091;DHT22;10205;49.678;6.560;2022-07-29T05:18:44;24.80;38.90
20091;DHT22;10205;49.678;6.560;2022-07-29T05:21:11;24.80;38.90
20091;DHT22;10205;49.678;6.560;2022-07-29T05:23:39;24.70;38.90
20091;DHT22;10205;49.678;6.560;2022-07-29T05:26:06;24.70;39.00
20091;DHT22;10205;49.678;6.560;2022-07-29T05:28:33;24.70;39.10
20091;DHT22;10205;49.678;6.560;2022-07-29T05:31:01;24.70;39.10
20091;DHT22;10205;49.678;6.560;2022-07-29T05:33:30;24.60;39.10
20091;DHT22;10205;49.678;6.560;2022-07-29T05:35:58;24.60;39.10
20091;DHT22;10205;49.678;6.560;2022-07-29T05:38:26;24.60;39.20
20091;DHT22;10205;49.678;6.560;2022-07-29T05:40:56;24.60;39.20
20091;DHT22;10205;49.678;6.560;2022-07-29T05:43:24;24.50;40.30
20091;DHT22;10205;49.678;6.560;2022-07-29T05:45:51;24.50;40.20
20091;DHT22;10205;49.678;6.560;2022-07-29T05:48:20;24.50;40.20
20091;DHT22;10205;49.678;6.560;2022-07-29T05:50:49;24.50;40.20
20091;DHT22;10205;49.678;6.560;2022-07-29T05:53:16;24.40;40.30
20091;DHT22;10205;49.678;6.560;2022-07-29T05:55:43;24.40;40.20
20091;DHT22;10205;49.678;6.560;2022-07-29T05:58:10;24.40;40.30
20091;DHT22;10205;49.678;6.560;2022-07-29T06:00:38;24.40;40.30
20091;DHT22;10205;49.678;6.560;2022-07-29T06:03:06;24.30;40.30
20091;DHT22;10205;49.678;6.560;2022-07-29T06:05:34;24.30;40.30
20091;DHT22;10205;49.678;6.560;2022-07-29T06:08:03;24.30;40.50
20091;DHT22;10205;49.678;6.560;2022-07-29T06:10:31;24.20;41.30
20091;DHT22;10205;49.678;6.560;2022-07-29T06:12:58;24.20;40.80
20091;DHT22;10205;49.678;6.560;2022-07-29T06:15:25;24.20;40.80
20091;DHT22;10205;49.678;6.560;2022-07-29T06:17:52;24.20;40.80
20091;DHT22;10205;49.678;6.560;2022-07-29T06:20:20;24.20;41.70
20091;DHT22;10205;49.678;6.560;2022-07-29T06:22:47;24.20;41.80
20091;DHT22;10205;49.678;6.560;2022-07-29T06:25:16;24.20;41.60
20091;DHT22;10205;49.678;6.560;2022-07-29T06:27:43;24.20;42.10
20091;DHT22;10205;49.678;6.560;2022-07-29T06:30:11;24.10;41.90
20091;DHT22;10205;49.678;6.560;2022-07-29T06:32:39;24.10;42.80
20091;DHT22;10205;49.678;6.560;2022-07-29T06:35:07;24.10;42.10
20091;DHT22;10205;49.678;6.560;2022-07-29T06:37:35;24.10;42.50
20091;DHT22;10205;49.678;6.560;2022-07-29T06:40:04;24.10;42.70
20091;DHT22;10205;49.678;6.560;2022-07-29T06:42:50;24.10;42.70
20091;DHT22;10205;49.678;6.560;2022-07-29T06:45:17;24.10;42.80
20091;DHT22;10205;49.678;6.560;2022-07-29T06:47:45;24.10;42.80
20091;DHT22;10205;49.678;6.560;2022-07-29T06:50:12;24.10;42.90
20091;DHT22;10205;49.678;6.560;2022-07-29T06:52:39;24.10;42.70
20091;DHT22;10205;49.678;6.560;2022-07-29T06:55:08;24.10;42.90
20091;DHT22;10205;49.678;6.560;2022-07-29T06:57:35;24.10;43.40
20091;DHT22;10205;49.678;6.560;2022-07-29T07:00:06;24.10;43.40
20091;DHT22;10205;49.678;6.560;2022-07-29T07:02:34;24.20;43.20
20091;DHT22;10205;49.678;6.560;2022-07-29T07:05:03;24.20;42.80
20091;DHT22;10205;49.678;6.560;2022-07-29T07:07:31;24.20;42.80
20091;DHT22;10205;49.678;6.560;2022-07-29T07:09:59;24.20;42.90
20091;DHT22;10205;49.678;6.560;2022-07-29T07:12:26;24.20;42.50
20091;DHT22;10205;49.678;6.560;2022-07-29T07:14:53;24.30;42.40
20091;DHT22;10205;49.678;6.560;2022-07-29T07:17:23;24.30;43.00
20091;DHT22;10205;49.678;6.560;2022-07-29T07:19:50;24.30;42.70
20091;DHT22;10205;49.678;6.560;2022-07-29T07:22:17;24.40;43.80
20091;DHT22;10205;49.678;6.560;2022-07-29T07:24:44;24.40;43.50
20091;DHT22;10205;49.678;6.560;2022-07-29T07:27:12;24.40;43.50
20091;DHT22;10205;49.678;6.560;2022-07-29T07:29:39;24.50;43.50
20091;DHT22;10205;49.678;6.560;2022-07-29T07:32:07;24.60;43.60
20091;DHT22;10205;49.678;6.560;2022-07-29T07:34:40;24.60;43.60
20091;DHT22;10205;49.678;6.560;2022-07-29T07:37:07;24.70;43.40
20091;DHT22;10205;49.678;6.560;2022-07-29T07:39:35;24.70;43.20
20091;DHT22;10205;49.678;6.560;2022-07-29T07:42:02;24.80;43.30
20091;DHT22;10205;49.678;6.560;2022-07-29T07:44:29;24.80;43.10
20091;DHT22;10205;49.678;6.560;2022-07-29T07:46:57;24.90;43.00
20091;DHT22;10205;49.678;6.560;2022-07-29T07:49:24;25.00;42.80
20091;DHT22;10205;49.678;6.560;2022-07-29T07:51:53;25.00;42.70
20091;DHT22;10205;49.678;6.560;2022-07-29T07:54:20;25.00;42.60
20091;DHT22;10205;49.678;6.560;2022-07-29T07:56:47;25.10;43.00
20091;DHT22;10205;49.678;6.560;2022-07-29T07:59:15;25.20;42.40
20091;DHT22;10205;49.678;6.560;2022-07-29T08:01:43;25.30;42.50
20091;DHT22;10205;49.678;6.560;2022-07-29T08:04:10;25.30;42.30
20091;DHT22;10205;49.678;6.560;2022-07-29T08:06:37;25.40;42.30
20091;DHT22;10205;49.678;6.560;2022-07-29T08:09:06;25.40;42.00
20091;DHT22;10205;49.678;6.560;2022-07-29T08:11:33;25.50;42.00
20091;DHT22;10205;49.678;6.560;2022-07-29T08:14:02;25.60;41.90
20091;DHT22;10205;49.678;6.560;2022-07-29T08:16:29;25.60;42.00
20091;DHT22;10205;49.678;6.560;2022-07-29T08:18:57;25.70;42.00
20091;DHT22;10205;49.678;6.560;2022-07-29T08:21:24;25.70;41.90
20091;DHT22;10205;49.678;6.560;2022-07-29T08:23:51;25.80;41.60
20091;DHT22;10205;49.678;6.560;2022-07-29T08:26:41;25.90;41.60
20091;DHT22;10205;49.678;6.560;2022-07-29T08:29:09;26.00;41.50
20091;DHT22;10205;49.678;6.560;2022-07-29T08:31:36;26.10;41.60
20091;DHT22;10205;49.678;6.560;2022-07-29T08:34:04;26.10;41.40
20091;DHT22;10205;49.678;6.560;2022-07-29T08:36:32;26.20;41.60
20091;DHT22;10205;49.678;6.560;2022-07-29T08:39:00;26.30;41.60
20091;DHT22;10205;49.678;6.560;2022-07-29T08:41:29;26.40;41.20
20091;DHT22;10205;49.678;6.560;2022-07-29T08:43:58;26.50;41.20
20091;DHT22;10205;49.678;6.560;2022-07-29T08:46:25;26.60;41.30
20091;DHT22;10205;49.678;6.560;2022-07-29T08:48:53;26.70;41.00
20091;DHT22;10205;49.678;6.560;2022-07-29T08:51:22;26.70;40.80
20091;DHT22;10205;49.678;6.560;2022-07-29T08:53:52;26.80;40.80
20091;DHT22;10205;49.678;6.560;2022-07-29T08:56:22;26.90;40.80
20091;DHT22;10205;49.678;6.560;2022-07-29T08:58:50;27.10;40.90
20091;DHT22;10205;49.678;6.560;2022-07-29T09:01:25;27.20;40.60
20091;DHT22;10205;49.678;6.560;2022-07-29T09:03:56;27.30;40.60
20091;DHT22;10205;49.678;6.560;2022-07-29T09:06:31;27.40;40.40
20091;DHT22;10205;49.678;6.560;2022-07-29T09:09:01;27.50;40.40
20091;DHT22;10205;49.678;6.560;2022-07-29T09:11:31;27.60;40.10
20091;DHT22;10205;49.678;6.560;2022-07-29T09:13:58;27.70;40.00
20091;DHT22;10205;49.678;6.560;2022-07-29T09:16:44;27.70;40.30
20091;DHT22;10205;49.678;6.560;2022-07-29T09:19:27;27.90;39.50
20091;DHT22;10205;49.678;6.560;2022-07-29T09:21:58;28.00;39.30
20091;DHT22;10205;49.678;6.560;2022-07-29T09:24:41;28.10;39.20
20091;DHT22;10205;49.678;6.560;2022-07-29T09:27:20;28.10;38.70
20091;DHT22;10205;49.678;6.560;2022-07-29T09:29:59;28.30;38.40
20091;DHT22;10205;49.678;6.560;2022-07-29T09:32:29;28.30;38.40
20091;DHT22;10205;49.678;6.560;2022-07-29T09:35:15;28.40;37.80
20091;DHT22;10205;49.678;6.560;2022-07-29T09:37:45;28.50;38.00
20091;DHT22;10205;49.678;6.560;2022-07-29T09:40:15;28.60;38.30
20091;DHT22;10205;49.678;6.560;2022-07-29T09:42:44;28.70;37.90
20091;DHT22;10205;49.678;6.560;2022-07-29T09:45:12;28.80;37.80
20091;DHT22;10205;49.678;6.560;2022-07-29T09:47:53;28.90;37.50
20091;DHT22;10205;49.678;6.560;2022-07-29T09:50:23;29.00;37.40
20091;DHT22;10205;49.678;6.560;2022-07-29T09:53:02;29.10;37.70
20091;DHT22;10205;49.678;6.560;2022-07-29T09:55:29;29.20;37.70
20091;DHT22;10205;49.678;6.560;2022-07-29T09:58:15;29.30;36.70
20091;DHT22;10205;49.678;6.560;2022-07-29T10:00:44;29.40;36.10
20091;DHT22;10205;49.678;6.560;2022-07-29T10:03:14;29.50;36.40
20091;DHT22;10205;49.678;6.560;2022-07-29T10:05:43;29.70;36.10
20091;DHT22;10205;49.678;6.560;2022-07-29T10:08:12;29.80;36.00
20091;DHT22;10205;49.678;6.560;2022-07-29T10:10:51;29.80;35.90
20091;DHT22;10205;49.678;6.560;2022-07-29T10:13:38;29.90;35.60
20091;DHT22;10205;49.678;6.560;2022-07-29T10:16:06;30.10;35.70
20091;DHT22;10205;49.678;6.560;2022-07-29T10:18:38;30.20;35.90
20091;DHT22;10205;49.678;6.560;2022-07-29T10:21:09;30.20;35.40
20091;DHT22;10205;49.678;6.560;2022-07-29T10:23:37;30.40;35.60
20091;DHT22;10205;49.678;6.560;2022-07-29T10:26:10;30.50;34.90
20091;DHT22;10205;49.678;6.560;2022-07-29T10:28:38;30.50;33.80
20091;DHT22;10205;49.678;6.560;2022-07-29T10:31:06;30.60;34.20
20091;DHT22;10205;49.678;6.560;2022-07-29T10:33:52;30.70;34.10
20091;DHT22;10205;49.678;6.560;2022-07-29T10:36:43;30.80;34.40
20091;DHT22;10205;49.678;6.560;2022-07-29T10:39:30;30.90;34.20
20091;DHT22;10205;49.678;6.560;2022-07-29T10:42:16;31.00;32.70
20091;DHT22;10205;49.678;6.560;2022-07-29T10:44:47;31.10;32.30
20091;DHT22;10205;49.678;6.560;2022-07-29T10:47:22;31.20;32.70
20091;DHT22;10205;49.678;6.560;2022-07-29T10:50:02;31.30;32.00
20091;DHT22;10205;49.678;6.560;2022-07-29T10:52:52;31.30;31.90
20091;DHT22;10205;49.678;6.560;2022-07-29T10:55:36;31.40;32.20
20091;DHT22;10205;49.678;6.560;2022-07-29T10:58:14;31.50;32.00
20091;DHT22;10205;49.678;6.560;2022-07-29T11:00:42;31.60;31.40
20091;DHT22;10205;49.678;6.560;2022-07-29T11:03:43;31.70;31.60
20091;DHT22;10205;49.678;6.560;2022-07-29T11:06:14;31.70;32.20
20091;DHT22;10205;49.678;6.560;2022-07-29T11:08:41;31.80;30.80
20091;DHT22;10205;49.678;6.560;2022-07-29T11:11:35;31.80;30.80
20091;DHT22;10205;49.678;6.560;2022-07-29T11:14:04;31.90;30.80
20091;DHT22;10205;49.678;6.560;2022-07-29T11:16:59;32.00;31.10
20091;DHT22;10205;49.678;6.560;2022-07-29T11:19:30;32.00;29.70
20091;DHT22;10205;49.678;6.560;2022-07-29T11:22:00;32.10;30.30
20091;DHT22;10205;49.678;6.560;2022-07-29T11:24:29;32.20;30.00
20091;DHT22;10205;49.678;6.560;2022-07-29T11:27:11;32.20;30.00
20091;DHT22;10205;49.678;6.560;2022-07-29T11:29:51;32.20;29.60
20091;DHT22;10205;49.678;6.560;2022-07-29T11:32:22;32.40;29.60
20091;DHT22;10205;49.678;6.560;2022-07-29T11:35:10;32.40;29.60
20091;DHT22;10205;49.678;6.560;2022-07-29T11:37:41;32.40;29.80
20091;DHT22;10205;49.678;6.560;2022-07-29T11:40:11;32.40;30.00
20091;DHT22;10205;49.678;6.560;2022-07-29T11:42:45;32.50;30.30
20091;DHT22;10205;49.678;6.560;2022-07-29T11:45:16;32.60;29.50
20091;DHT22;10205;49.678;6.560;2022-07-29T11:47:50;32.60;30.30
20091;DHT22;10205;49.678;6.560;2022-07-29T11:50:34;32.70;29.10
20091;DHT22;10205;49.678;6.560;2022-07-29T11:53:12;32.70;29.80
20091;DHT22;10205;49.678;6.560;2022-07-29T11:55:40;32.80;29.50
20091;DHT22;10205;49.678;6.560;2022-07-29T11:58:08;32.90;28.70
20091;DHT22;10205;49.678;6.560;2022-07-29T12:00:37;32.90;29.20
20091;DHT22;10205;49.678;6.560;2022-07-29T12:03:08;32.90;29.10
20091;DHT22;10205;49.678;6.560;2022-07-29T12:05:38;33.00;29.40
20091;DHT22;10205;49.678;6.560;2022-07-29T12:08:11;33.00;29.50
20091;DHT22;10205;49.678;6.560;2022-07-29T12:10:41;33.10;29.10
20091;DHT22;10205;49.678;6.560;2022-07-29T12:13:09;33.20;29.10
20091;DHT22;10205;49.678;6.560;2022-07-29T12:15:39;33.20;28.30
20091;DHT22;10205;49.678;6.560;2022-07-29T12:18:23;33.30;29.00
20091;DHT22;10205;49.678;6.560;2022-07-29T12:20:56;33.30;28.70
20091;DHT22;10205;49.678;6.560;2022-07-29T12:23:30;33.30;28.60
20091;DHT22;10205;49.678;6.560;2022-07-29T12:25:59;33.40;28.80
20091;DHT22;10205;49.678;6.560;2022-07-29T12:28:26;33.40;28.80
20091;DHT22;10205;49.678;6.560;2022-07-29T12:30:55;33.40;28.50
20091;DHT22;10205;49.678;6.560;2022-07-29T12:33:27;33.50;28.60
20091;DHT22;10205;49.678;6.560;2022-07-29T12:35:57;33.60;28.70
20091;DHT22;10205;49.678;6.560;2022-07-29T12:38:27;33.60;28.60
20091;DHT22;10205;49.678;6.560;2022-07-29T12:40:59;33.60;28.60
20091;DHT22;10205;49.678;6.560;2022-07-29T12:43:27;33.70;28.60
20091;DHT22;10205;49.678;6.560;2022-07-29T12:45:55;33.80;28.40
20091;DHT22;10205;49.678;6.560;2022-07-29T12:48:34;33.80;27.80
20091;DHT22;10205;49.678;6.560;2022-07-29T12:51:03;33.80;28.30
20091;DHT22;10205;49.678;6.560;2022-07-29T12:53:35;33.90;28.20
20091;DHT22;10205;49.678;6.560;2022-07-29T12:56:04;33.90;28.20
20091;DHT22;10205;49.678;6.560;2022-07-29T12:58:34;33.90;28.30
20091;DHT22;10205;49.678;6.560;2022-07-29T13:01:05;33.90;28.00
20091;DHT22;10205;49.678;6.560;2022-07-29T13:03:48;34.00;27.90
20091;DHT22;10205;49.678;6.560;2022-07-29T13:06:34;34.10;28.20
20091;DHT22;10205;49.678;6.560;2022-07-29T13:09:08;34.10;27.90
20091;DHT22;10205;49.678;6.560;2022-07-29T13:11:39;34.10;28.00
20091;DHT22;10205;49.678;6.560;2022-07-29T13:14:08;34.20;28.40
20091;DHT22;10205;49.678;6.560;2022-07-29T13:17:01;34.30;27.70
20091;DHT22;10205;49.678;6.560;2022-07-29T13:19:35;34.30;27.80
20091;DHT22;10205;49.678;6.560;2022-07-29T13:22:04;34.30;26.30
20091;DHT22;10205;49.678;6.560;2022-07-29T13:24:33;34.30;26.90
20091;DHT22;10205;49.678;6.560;2022-07-29T13:27:00;34.30;27.10
20091;DHT22;10205;49.678;6.560;2022-07-29T13:29:28;34.30;27.80
20091;DHT22;10205;49.678;6.560;2022-07-29T13:31:55;34.30;26.90
20091;DHT22;10205;49.678;6.560;2022-07-29T13:34:23;34.30;27.40
20091;DHT22;10205;49.678;6.560;2022-07-29T13:36:50;34.40;27.90
20091;DHT22;10205;49.678;6.560;2022-07-29T13:39:17;34.50;27.40
20091;DHT22;10205;49.678;6.560;2022-07-29T13:41:46;34.60;27.90
20091;DHT22;10205;49.678;6.560;2022-07-29T13:44:13;34.60;28.00
20091;DHT22;10205;49.678;6.560;2022-07-29T13:46:40;34.80;27.70
20091;DHT22;10205;49.678;6.560;2022-07-29T13:49:07;34.90;27.50
20091;DHT22;10205;49.678;6.560;2022-07-29T13:51:36;35.00;26.40
20091;DHT22;10205;49.678;6.560;2022-07-29T13:54:08;35.10;26.50
20091;DHT22;10205;49.678;6.560;2022-07-29T13:56:35;35.20;26.00
20091;DHT22;10205;49.678;6.560;2022-07-29T13:59:04;35.30;26.30
20091;DHT22;10205;49.678;6.560;2022-07-29T14:01:31;35.30;25.60
20091;DHT22;10205;49.678;6.560;2022-07-29T14:03:58;35.40;26.40
20091;DHT22;10205;49.678;6.560;2022-07-29T14:06:25;35.50;26.20
20091;DHT22;10205;49.678;6.560;2022-07-29T14:08:53;35.50;26.30
20091;DHT22;10205;49.678;6.560;2022-07-29T14:11:20;35.60;26.30
20091;DHT22;10205;49.678;6.560;2022-07-29T14:13:48;35.60;25.50
20091;DHT22;10205;49.678;6.560;2022-07-29T14:16:16;35.60;25.60
20091;DHT22;10205;49.678;6.560;2022-07-29T14:18:43;35.70;26.00
20091;DHT22;10205;49.678;6.560;2022-07-29T14:21:10;35.70;26.00
20091;DHT22;10205;49.678;6.560;2022-07-29T14:23:38;35.80;26.00
20091;DHT22;10205;49.678;6.560;2022-07-29T14:26:06;35.80;25.40
20091;DHT22;10205;49.678;6.560;2022-07-29T14:28:33;35.90;25.20
20091;DHT22;10205;49.678;6.560;2022-07-29T14:31:00;35.90;25.70
20091;DHT22;10205;49.678;6.560;2022-07-29T14:33:29;35.90;25.50
20091;DHT22;10205;49.678;6.560;2022-07-29T14:35:56;35.90;25.90
20091;DHT22;10205;49.678;6.560;2022-07-29T14:38:25;36.00;25.40
20091;DHT22;10205;49.678;6.560;2022-07-29T14:40:52;36.10;25.40
20091;DHT22;10205;49.678;6.560;2022-07-29T14:43:20;36.10;25.10
20091;DHT22;10205;49.678;6.560;2022-07-29T14:45:47;36.20;25.20
20091;DHT22;10205;49.678;6.560;2022-07-29T14:48:14;36.20;25.30
20091;DHT22;10205;49.678;6.560;2022-07-29T14:50:43;36.30;25.10
20091;DHT22;10205;49.678;6.560;2022-07-29T14:53:10;36.30;24.60
20091;DHT22;10205;49.678;6.560;2022-07-29T14:55:38;36.30;24.50
20091;DHT22;10205;49.678;6.560;2022-07-29T14:58:07;36.40;24.60
20091;DHT22;10205;49.678;6.560;2022-07-29T15:00:35;36.30;24.70
20091;DHT22;10205;49.678;6.560;2022-07-29T15:03:03;36.30;24.30
20091;DHT22;10205;49.678;6.560;2022-07-29T15:05:31;36.30;24.60
20091;DHT22;10205;49.678;6.560;2022-07-29T15:08:00;36.30;24.60
20091;DHT22;10205;49.678;6.560;2022-07-29T15:10:27;36.30;24.60
20091;DHT22;10205;49.678;6.560;2022-07-29T15:12:55;36.30;24.70
20091;DHT22;10205;49.678;6.560;2022-07-29T15:15:23;36.30;24.90
20091;DHT22;10205;49.678;6.560;2022-07-29T15:17:50;36.30;24.70
20091;DHT22;10205;49.678;6.560;2022-07-29T15:20:18;36.30;24.60
20091;DHT22;10205;49.678;6.560;2022-07-29T15:22:45;36.20;24.60
20091;DHT22;10205;49.678;6.560;2022-07-29T15:25:14;36.10;24.70
20091;DHT22;10205;49.678;6.560;2022-07-29T15:27:41;36.00;24.80
20091;DHT22;10205;49.678;6.560;2022-07-29T15:30:09;35.90;25.20
20091;DHT22;10205;49.678;6.560;2022-07-29T15:32:38;35.90;25.40
20091;DHT22;10205;49.678;6.560;2022-07-29T15:35:05;35.80;25.50
20091;DHT22;10205;49.678;6.560;2022-07-29T15:37:35;35.70;25.50
20091;DHT22;10205;49.678;6.560;2022-07-29T15:40:03;35.60;25.90
20091;DHT22;10205;49.678;6.560;2022-07-29T15:42:35;35.50;25.70
20091;DHT22;10205;49.678;6.560;2022-07-29T15:45:03;35.50;26.00
20091;DHT22;10205;49.678;6.560;2022-07-29T15:47:31;35.50;26.20
20091;DHT22;10205;49.678;6.560;2022-07-29T15:49:58;35.40;26.30
20091;DHT22;10205;49.678;6.560;2022-07-29T15:52:26;35.40;26.20